sensor_id;sensor_type;location;lat;lon;timestamp;pressure;altitude;pressure_sealevel;temperature;humidity
11041;BME280;5573;49.592;8.662;2023-04-30T00:00:47;100262.63;;;12.43;100.00
11041;BME280;5573;49.592;8.662;2023-04-30T00:03:15;100258.25;;;12.38;100.00
11041;BME280;5573;49.592;8.662;2023-04-30T00:05:42;100253.53;;;12.35;100.00
11041;BME280;5573;49.592;8.662;2023-04-30T00:08:11;100247.16;;;12.28;100.00
11041;BME280;5573;49.592;8.662;2023-04-30T00:10:39;100260.56;;;12.29;100.00
11041;BME280;5573;49.592;8.662;2023-04-30T00:13:07;100263.31;;;12.29;100.00
11041;BME280;5573;49.592;8.662;2023-04-30T00:15:35;100264.84;;;12.27;100.00
11041;BME280;5573;49.592;8.662;2023-04-30T00:18:03;100268.81;;;12.26;100.00
11041;BME280;5573;49.592;8.662;2023-04-30T00:20:32;100265.22;;;12.22;100.00
11041;BME280;5573;49.592;8.662;2023-04-30T00:23:01;100267.19;;;12.21;100.00
11041;BME280;5573;49.592;8.662;2023-04-30T00:25:30;100269.59;;;12.26;100.00
11041;BME280;5573;49.592;8.662;2023-04-30T00:27:57;100273.94;;;12.27;100.00
11041;BME280;5573;49.592;8.662;2023-04-30T00:30:25;100270.78;;;12.25;100.00
11041;BME280;5573;49.592;8.662;2023-04-30T00:32:53;100273.50;;;12.22;100.00
11041;BME280;5573;49.592;8.662;2023-04-30T00:35:21;100275.47;;;12.21;100.00
11041;BME280;5573;49.592;8.662;2023-04-30T00:37:48;100277.81;;;12.19;100.00
11041;BME280;5573;49.592;8.662;2023-04-30T00:40:16;100273.88;;;12.20;100.00
11041;BME280;5573;49.592;8.662;2023-04-30T00:42:45;100275.44;;;12.17;100.00
11041;BME280;5573;49.592;8.662;2023-04-30T00:45:14;100278.16;;;12.14;100.00
11041;BME280;5573;49.592;8.662;2023-04-30T00:47:43;100278.94;;;12.11;100.00
11041;BME280;5573;49.592;8.662;2023-04-30T00:50:11;100269.81;;;12.07;100.00
11041;BME280;5573;49.592;8.662;2023-04-30T00:52:41;100281.66;;;12.07;100.00
11041;BME280;5573;49.592;8.662;2023-04-30T00:55:10;100274.59;;;12.13;100.00
11041;BME280;5573;49.592;8.662;2023-04-30T00:57:39;100234.50;;;11.78;100.00
11041;BME280;5573;49.592;8.662;2023-04-30T01:00:09;100273.72;;;12.02;100.00
11041;BME280;5573;49.592;8.662;2023-04-30T01:02:37;100276.09;;;12.04;100.00
11041;BME280;5573;49.592;8.662;2023-04-30T01:05:06;100275.78;;;12.12;100.00
11041;BME280;5573;49.592;8.662;2023-04-30T01:07:35;100275.38;;;12.10;100.00
11041;BME280;5573;49.592;8.662;2023-04-30T01:10:04;100266.63;;;12.01;100.00
11041;BME280;5573;49.592;8.662;2023-04-30T01:12:36;100280.06;;;12.06;100.00
11041;BME280;5573;49.592;8.662;2023-04-30T01:15:12;100279.66;;;12.04;100.00
11041;BME280;5573;49.592;8.662;2023-04-30T01:17:46;100279.66;;;12.04;100.00
11041;BME280;5573;49.592;8.662;2023-04-30T01:20:15;100280.03;;;12.03;100.00
11041;BME280;5573;49.592;8.662;2023-04-30T01:22:46;100277.69;;;12.05;100.00
11041;BME280;5573;49.592;8.662;2023-04-30T01:25:34;100274.50;;;12.03;100.00
11041;BME280;5573;49.592;8.662;2023-04-30T01:28:12;100279.19;;;11.98;100.00
11041;BME280;5573;49.592;8.662;2023-04-30T01:30:42;100258.63;;;11.89;100.00
11041;BME280;5573;49.592;8.662;2023-04-30T01:33:11;100276.41;;;11.95;100.00
11041;BME280;5573;49.592;8.662;2023-04-30T01:36:02;100274.03;;;11.93;100.00
11041;BME280;5573;49.592;8.662;2023-04-30T01:38:40;100274.84;;;11.94;100.00
11041;BME280;5573;49.592;8.662;2023-04-30T01:41:27;100275.66;;;11.98;100.00
11041;BME280;5573;49.592;8.662;2023-04-30T01:44:10;100272.13;;;12.01;100.00
11041;BME280;5573;49.592;8.662;2023-04-30T01:46:40;100275.66;;;11.98;100.00
11041;BME280;5573;49.592;8.662;2023-04-30T01:49:14;100277.59;;;11.94;100.00
11041;BME280;5573;49.592;8.662;2023-04-30T01:51:47;100276.81;;;11.93;100.00
11041;BME280;5573;49.592;8.662;2023-04-30T01:54:25;100184.41;;;11.28;100.00
11041;BME280;5573;49.592;8.662;2023-04-30T01:57:00;100278.34;;;11.91;100.00
11041;BME280;5573;49.592;8.662;2023-04-30T01:59:34;100281.13;;;11.94;100.00
11041;BME280;5573;49.592;8.662;2023-04-30T02:02:02;100278.75;;;11.93;100.00
11041;BME280;5573;49.592;8.662;2023-04-30T02:04:30;100283.16;;;11.97;100.00
11041;BME280;5573;49.592;8.662;2023-04-30T02:06:58;100281.00;;;11.84;100.00
11041;BME280;5573;49.592;8.662;2023-04-30T02:09:26;100288.16;;;11.88;100.00
11041;BME280;5573;49.592;8.662;2023-04-30T02:11:54;100282.56;;;11.81;100.00
11041;BME280;5573;49.592;8.662;2023-04-30T02:14:23;100275.38;;;11.73;100.00
11041;BME280;5573;49.592;8.662;2023-04-30T02:16:54;100283.81;;;11.87;100.00
11041;BME280;5573;49.592;8.662;2023-04-30T02:19:21;100281.84;;;11.88;100.00
11041;BME280;5573;49.592;8.662;2023-04-30T02:21:49;100276.69;;;11.86;100.00
11041;BME280;5573;49.592;8.662;2023-04-30T02:24:17;100273.84;;;11.75;100.00
11041;BME280;5573;49.592;8.662;2023-04-30T02:26:44;100275.75;;;11.71;100.00
11041;BME280;5573;49.592;8.662;2023-04-30T02:29:12;100278.19;;;11.76;100.00
11041;BME280;5573;49.592;8.662;2023-04-30T02:31:40;100274.19;;;11.74;100.00
11041;BME280;5573;49.592;8.662;2023-04-30T02:34:11;100276.44;;;11.61;100.00
11041;BME280;5573;49.592;8.662;2023-04-30T02:36:39;100273.34;;;11.66;100.00
11041;BME280;5573;49.592;8.662;2023-04-30T02:39:06;100273.38;;;11.70;100.00
11041;BME280;5573;49.592;8.662;2023-04-30T02:41:34;100278.88;;;11.70;100.00
11041;BME280;5573;49.592;8.662;2023-04-30T02:44:03;100273.38;;;11.70;100.00
11041;BME280;5573;49.592;8.662;2023-04-30T02:46:31;100271.84;;;11.72;100.00
11041;BME280;5573;49.592;8.662;2023-04-30T02:48:58;100274.50;;;11.65;100.00
11041;BME280;5573;49.592;8.662;2023-04-30T02:51:27;100273.03;;;11.75;100.00
11041;BME280;5573;49.592;8.662;2023-04-30T02:53:55;100264.66;;;11.64;100.00
11041;BME280;5573;49.592;8.662;2023-04-30T02:56:23;100261.91;;;11.64;100.00
11041;BME280;5573;49.592;8.662;2023-04-30T02:58:51;100266.25;;;11.65;100.00
11041;BME280;5573;49.592;8.662;2023-04-30T03:01:19;100272.16;;;11.67;100.00
11041;BME280;5573;49.592;8.662;2023-04-30T03:03:47;100276.91;;;11.67;100.00
11041;BME280;5573;49.592;8.662;2023-04-30T03:06:15;100274.56;;;11.69;100.00
11041;BME280;5573;49.592;8.662;2023-04-30T03:08:44;100292.25;;;11.68;100.00
11041;BME280;5573;49.592;8.662;2023-04-30T03:11:11;100285.94;;;11.67;100.00
11041;BME280;5573;49.592;8.662;2023-04-30T03:13:39;100285.16;;;11.67;100.00
11041;BME280;5573;49.592;8.662;2023-04-30T03:16:08;100284.38;;;11.70;100.00
11041;BME280;5573;49.592;8.662;2023-04-30T03:18:36;100285.56;;;11.69;100.00
11041;BME280;5573;49.592;8.662;2023-04-30T03:21:04;100286.31;;;11.66;100.00
11041;BME280;5573;49.592;8.662;2023-04-30T03:23:32;100281.16;;;11.60;100.00
11041;BME280;5573;49.592;8.662;2023-04-30T03:26:01;100279.50;;;11.52;100.00
11041;BME280;5573;49.592;8.662;2023-04-30T03:28:29;100277.19;;;11.58;100.00
11041;BME280;5573;49.592;8.662;2023-04-30T03:30:56;100279.91;;;11.54;100.00
11041;BME280;5573;49.592;8.662;2023-04-30T03:33:24;100279.94;;;11.58;100.00
11041;BME280;5573;49.592;8.662;2023-04-30T03:35:52;100272.88;;;11.60;100.00
11041;BME280;5573;49.592;8.662;2023-04-30T03:38:20;100269.94;;;11.43;100.00
11041;BME280;5573;49.592;8.662;2023-04-30T03:40:48;100277.44;;;11.46;100.00
11041;BME280;5573;49.592;8.662;2023-04-30T03:43:17;100270.47;;;11.55;100.00
11041;BME280;5573;49.592;8.662;2023-04-30T03:45:45;100270.34;;;11.45;100.00
11041;BME280;5573;49.592;8.662;2023-04-30T03:48:12;100281.47;;;11.52;100.00
11041;BME280;5573;49.592;8.662;2023-04-30T03:50:40;100277.19;;;11.58;100.00
11041;BME280;5573;49.592;8.662;2023-04-30T03:53:08;100277.94;;;11.55;100.00
11041;BME280;5573;49.592;8.662;2023-04-30T03:55:36;100285.03;;;11.56;100.00
11041;BME280;5573;49.592;8.662;2023-04-30T03:58:04;100284.25;;;11.55;100.00
11041;BME280;5573;49.592;8.662;2023-04-30T04:00:33;100285.00;;;11.52;100.00
11041;BME280;5573;49.592;8.662;2023-04-30T04:03:01;100277.06;;;11.47;100.00
11041;BME280;5573;49.592;8.662;2023-04-30T04:05:29;100285.41;;;11.54;100.00
11041;BME280;5573;49.592;8.662;2023-04-30T04:07:57;100278.59;;;11.41;100.00
11041;BME280;5573;49.592;8.662;2023-04-30T04:10:25;100274.66;;;11.42;100.00
11041;BME280;5573;49.592;8.662;2023-04-30T04:12:52;100277.88;;;11.48;100.00
11041;BME280;5573;49.592;8.662;2023-04-30T04:15:20;100281.03;;;11.50;100.00
11041;BME280;5573;49.592;8.662;2023-04-30T04:17:49;100286.63;;;11.57;100.00
11041;BME280;5573;49.592;8.662;2023-04-30T04:20:17;100280.75;;;11.58;100.00
11041;BME280;5573;49.592;8.662;2023-04-30T04:22:45;100284.78;;;11.68;100.00
11041;BME280;5573;49.592;8.662;2023-04-30T04:25:13;100279.59;;;11.63;100.00
11041;BME280;5573;49.592;8.662;2023-04-30T04:27:43;100287.84;;;11.59;100.00
11041;BME280;5573;49.592;8.662;2023-04-30T04:30:11;100284.69;;;11.57;100.00
11041;BME280;5573;49.592;8.662;2023-04-30T04:32:40;100284.78;;;11.68;100.00
11041;BME280;5573;49.592;8.662;2023-04-30T04:35:16;100292.63;;;11.66;100.00
11041;BME280;5573;49.592;8.662;2023-04-30T04:37:45;100296.91;;;11.64;100.00
11041;BME280;5573;49.592;8.662;2023-04-30T04:40:13;100300.50;;;11.68;100.00
11041;BME280;5573;49.592;8.662;2023-04-30T04:42:40;100298.56;;;11.68;100.00
11041;BME280;5573;49.592;8.662;2023-04-30T04:45:10;100302.06;;;11.65;100.00
11041;BME280;5573;49.592;8.662;2023-04-30T04:47:38;100304.25;;;11.86;100.00
11041;BME280;5573;49.592;8.662;2023-04-30T04:50:07;100306.59;;;11.84;100.00
11041;BME280;5573;49.592;8.662;2023-04-30T04:52:36;100305.75;;;11.80;100.00
11041;BME280;5573;49.592;8.662;2023-04-30T04:55:04;100306.31;;;11.93;100.00
11041;BME280;5573;49.592;8.662;2023-04-30T04:57:32;100300.28;;;11.84;100.00
11041;BME280;5573;49.592;8.662;2023-04-30T05:00:00;100309.41;;;11.88;100.00
11041;BME280;5573;49.592;8.662;2023-04-30T05:02:28;100302.03;;;11.95;100.00
11041;BME280;5573;49.592;8.662;2023-04-30T05:04:56;100310.03;;;12.11;100.00
11041;BME280;5573;49.592;8.662;2023-04-30T05:07:23;100299.84;;;12.15;100.00
11041;BME280;5573;49.592;8.662;2023-04-30T05:09:53;100305.41;;;12.23;100.00
11041;BME280;5573;49.592;8.662;2023-04-30T05:12:21;100305.31;;;12.12;100.00
11041;BME280;5573;49.592;8.662;2023-04-30T05:14:49;100304.47;;;12.04;100.00
11041;BME280;5573;49.592;8.662;2023-04-30T05:17:16;100309.56;;;12.02;100.00
11041;BME280;5573;49.592;8.662;2023-04-30T05:19:44;100312.25;;;11.95;100.00
11041;BME280;5573;49.592;8.662;2023-04-30T05:22:13;100311.09;;;11.96;100.00
11041;BME280;5573;49.592;8.662;2023-04-30T05:24:41;100307.09;;;11.90;100.00
11041;BME280;5573;49.592;8.662;2023-04-30T05:27:10;100306.56;;;11.80;100.00
11041;BME280;5573;49.592;8.662;2023-04-30T05:29:37;100304.09;;;11.72;100.00
11041;BME280;5573;49.592;8.662;2023-04-30T05:32:05;100311.22;;;11.73;100.00
11041;BME280;5573;49.592;8.662;2023-04-30T05:34:33;100311.72;;;11.48;100.00
11041;BME280;5573;49.592;8.662;2023-04-30T05:37:01;100312.66;;;11.63;100.00
11041;BME280;5573;49.592;8.662;2023-04-30T05:39:29;100311.00;;;11.55;100.00
11041;BME280;5573;49.592;8.662;2023-04-30T05:41:56;100317.47;;;11.70;100.00
11041;BME280;5573;49.592;8.662;2023-04-30T05:44:25;100312.88;;;11.81;100.00
11041;BME280;5573;49.592;8.662;2023-04-30T05:46:55;100317.34;;;11.93;100.00
11041;BME280;5573;49.592;8.662;2023-04-30T05:49:23;100314.44;;;11.82;100.00
11041;BME280;5573;49.592;8.662;2023-04-30T05:51:51;100310.72;;;12.01;100.00
11041;BME280;5573;49.592;8.662;2023-04-30T05:54:18;100314.03;;;12.17;100.00
11041;BME280;5573;49.592;8.662;2023-04-30T05:56:46;100315.22;;;12.16;100.00
11041;BME280;5573;49.592;8.662;2023-04-30T05:59:14;100319.25;;;12.26;100.00
11041;BME280;5573;49.592;8.662;2023-04-30T06:01:43;100320.94;;;12.38;100.00
11041;BME280;5573;49.592;8.662;2023-04-30T06:04:11;100317.63;;;12.70;100.00
11041;BME280;5573;49.592;8.662;2023-04-30T06:06:38;100320.84;;;12.79;100.00
11041;BME280;5573;49.592;8.662;2023-04-30T06:09:06;100317.03;;;13.01;100.00
11041;BME280;5573;49.592;8.662;2023-04-30T06:11:34;100317.13;;;13.19;96.63
11041;BME280;5573;49.592;8.662;2023-04-30T06:14:03;100313.63;;;13.26;94.63
11041;BME280;5573;49.592;8.662;2023-04-30T06:16:31;100314.47;;;13.34;95.84
11041;BME280;5573;49.592;8.662;2023-04-30T06:19:00;100323.44;;;13.16;99.77
11041;BME280;5573;49.592;8.662;2023-04-30T06:21:27;100314.28;;;13.01;98.75
11041;BME280;5573;49.592;8.662;2023-04-30T06:23:56;100321.72;;;12.90;99.99
11041;BME280;5573;49.592;8.662;2023-04-30T06:26:24;100315.41;;;12.93;97.32
11041;BME280;5573;49.592;8.662;2023-04-30T06:28:51;100316.31;;;13.15;95.86
11041;BME280;5573;49.592;8.662;2023-04-30T06:31:19;100322.78;;;13.37;94.75
11041;BME280;5573;49.592;8.662;2023-04-30T06:33:47;100315.25;;;13.31;93.82
11041;BME280;5573;49.592;8.662;2023-04-30T06:36:16;100311.69;;;13.30;92.40
11041;BME280;5573;49.592;8.662;2023-04-30T06:38:45;100322.91;;;13.80;89.46
11041;BME280;5573;49.592;8.662;2023-04-30T06:41:13;100326.91;;;14.01;91.04
11041;BME280;5573;49.592;8.662;2023-04-30T06:43:42;100319.03;;;14.24;84.44
11041;BME280;5573;49.592;8.662;2023-04-30T06:46:09;100328.16;;;14.36;86.88
11041;BME280;5573;49.592;8.662;2023-04-30T06:48:37;100326.91;;;14.01;90.73
11041;BME280;5573;49.592;8.662;2023-04-30T06:51:05;100320.59;;;14.18;88.57
11041;BME280;5573;49.592;8.662;2023-04-30T06:53:37;100323.38;;;14.18;85.07
11041;BME280;5573;49.592;8.662;2023-04-30T06:56:05;100320.19;;;14.06;83.92
11041;BME280;5573;49.592;8.662;2023-04-30T06:58:33;100323.00;;;14.34;82.95
11041;BME280;5573;49.592;8.662;2023-04-30T07:01:00;100322.25;;;14.55;81.30
11041;BME280;5573;49.592;8.662;2023-04-30T07:03:28;100334.09;;;14.84;79.94
11041;BME280;5573;49.592;8.662;2023-04-30T07:05:56;100325.31;;;15.18;74.11
11041;BME280;5573;49.592;8.662;2023-04-30T07:08:24;100298.41;;;15.01;77.17
11041;BME280;5573;49.592;8.662;2023-04-30T07:10:53;100323.28;;;15.26;72.10
11041;BME280;5573;49.592;8.662;2023-04-30T07:13:21;100328.84;;;15.15;73.95
11041;BME280;5573;49.592;8.662;2023-04-30T07:15:49;100320.03;;;15.49;72.18
11041;BME280;5573;49.592;8.662;2023-04-30T07:18:17;100327.16;;;15.54;74.49
11041;BME280;5573;49.592;8.662;2023-04-30T07:20:45;100321.94;;;15.67;69.11
11041;BME280;5573;49.592;8.662;2023-04-30T07:23:12;100329.41;;;15.84;68.23
11041;BME280;5573;49.592;8.662;2023-04-30T07:25:40;100319.31;;;16.12;66.42
11041;BME280;5573;49.592;8.662;2023-04-30T07:28:09;100324.31;;;16.35;64.26
11041;BME280;5573;49.592;8.662;2023-04-30T07:30:37;100318.19;;;16.54;64.88
11041;BME280;5573;49.592;8.662;2023-04-30T07:33:05;100321.44;;;16.91;63.84
11041;BME280;5573;49.592;8.662;2023-04-30T07:35:33;100320.88;;;17.10;64.51
11041;BME280;5573;49.592;8.662;2023-04-30T07:38:02;100323.47;;;17.59;61.10
11041;BME280;5573;49.592;8.662;2023-04-30T07:40:30;100316.59;;;17.67;57.45
11041;BME280;5573;49.592;8.662;2023-04-30T07:43:02;100325.25;;;17.73;58.61
11041;BME280;5573;49.592;8.662;2023-04-30T07:45:32;100317.72;;;18.00;55.88
11041;BME280;5573;49.592;8.662;2023-04-30T07:48:00;100288.22;;;17.79;55.86
11041;BME280;5573;49.592;8.662;2023-04-30T07:50:28;100321.22;;;17.46;57.30
11041;BME280;5573;49.592;8.662;2023-04-30T07:53:00;100312.50;;;17.44;56.96
11041;BME280;5573;49.592;8.662;2023-04-30T07:55:28;100308.84;;;17.82;56.87
11041;BME280;5573;49.592;8.662;2023-04-30T07:57:55;100303.88;;;17.01;56.20
11041;BME280;5573;49.592;8.662;2023-04-30T08:00:24;100306.63;;;17.04;59.25
11041;BME280;5573;49.592;8.662;2023-04-30T08:02:53;100311.03;;;17.02;58.26
11041;BME280;5573;49.592;8.662;2023-04-30T08:05:21;100314.94;;;17.08;57.88
11041;BME280;5573;49.592;8.662;2023-04-30T08:07:49;100311.91;;;17.30;57.76
11041;BME280;5573;49.592;8.662;2023-04-30T08:10:16;100318.28;;;17.26;55.57
11041;BME280;5573;49.592;8.662;2023-04-30T08:12:44;100313.22;;;17.52;57.68
11041;BME280;5573;49.592;8.662;2023-04-30T08:15:12;100325.53;;;17.51;55.21
11041;BME280;5573;49.592;8.662;2023-04-30T08:17:40;100310.94;;;17.09;57.64
11041;BME280;5573;49.592;8.662;2023-04-30T08:20:10;100309.03;;;17.02;58.73
11041;BME280;5573;49.592;8.662;2023-04-30T08:22:37;100313.28;;;16.69;56.76
11041;BME280;5573;49.592;8.662;2023-04-30T08:25:06;100312.66;;;16.99;56.57
11041;BME280;5573;49.592;8.662;2023-04-30T08:27:33;100306.03;;;17.55;56.13
11041;BME280;5573;49.592;8.662;2023-04-30T08:30:01;100313.75;;;17.71;54.90
11041;BME280;5573;49.592;8.662;2023-04-30T08:32:29;100306.16;;;17.10;56.47
11041;BME280;5573;49.592;8.662;2023-04-30T08:34:57;100302.63;;;17.40;58.06
11041;BME280;5573;49.592;8.662;2023-04-30T08:37:26;100302.38;;;17.92;55.81
11041;BME280;5573;49.592;8.662;2023-04-30T08:39:54;100308.94;;;18.05;55.72
11041;BME280;5573;49.592;8.662;2023-04-30T08:42:24;100305.28;;;18.08;54.68
11041;BME280;5573;49.592;8.662;2023-04-30T08:44:52;100300.50;;;18.36;52.70
11041;BME280;5573;49.592;8.662;2023-04-30T08:47:20;100298.16;;;17.77;54.92
11041;BME280;5573;49.592;8.662;2023-04-30T08:49:49;100306.09;;;17.47;54.81
11041;BME280;5573;49.592;8.662;2023-04-30T08:52:18;100309.59;;;17.24;54.91
11041;BME280;5573;49.592;8.662;2023-04-30T08:54:49;100308.00;;;17.23;55.33
11041;BME280;5573;49.592;8.662;2023-04-30T08:57:17;100312.28;;;17.32;53.57
11041;BME280;5573;49.592;8.662;2023-04-30T08:59:45;100306.81;;;17.55;56.24
11041;BME280;5573;49.592;8.662;2023-04-30T09:02:13;100309.31;;;17.46;54.18
11041;BME280;5573;49.592;8.662;2023-04-30T09:04:41;100306.69;;;17.62;53.51
11041;BME280;5573;49.592;8.662;2023-04-30T09:07:09;100305.03;;;17.99;53.99
11041;BME280;5573;49.592;8.662;2023-04-30T09:09:39;100284.25;;;18.31;51.38
11041;BME280;5573;49.592;8.662;2023-04-30T09:12:13;100303.75;;;19.02;50.59
11041;BME280;5573;49.592;8.662;2023-04-30T09:14:58;100293.44;;;19.39;47.50
11041;BME280;5573;49.592;8.662;2023-04-30T09:17:28;100272.34;;;18.98;46.83
11041;BME280;5573;49.592;8.662;2023-04-30T09:20:05;100303.50;;;18.69;48.99
11041;BME280;5573;49.592;8.662;2023-04-30T09:22:35;100278.06;;;18.20;49.91
11041;BME280;5573;49.592;8.662;2023-04-30T09:25:03;100291.81;;;18.31;49.68
11041;BME280;5573;49.592;8.662;2023-04-30T09:27:33;100299.25;;;17.86;46.77
11041;BME280;5573;49.592;8.662;2023-04-30T09:30:01;100296.53;;;17.83;47.69
11041;BME280;5573;49.592;8.662;2023-04-30T09:32:31;100298.47;;;18.13;48.89
11041;BME280;5573;49.592;8.662;2023-04-30T09:34:58;100293.16;;;17.95;47.50
11041;BME280;5573;49.592;8.662;2023-04-30T09:37:35;100295.53;;;17.97;48.18
11041;BME280;5573;49.592;8.662;2023-04-30T09:40:03;100292.06;;;17.89;48.32
11041;BME280;5573;49.592;8.662;2023-04-30T09:42:32;100286.97;;;18.11;48.26
11041;BME280;5573;49.592;8.662;2023-04-30T09:45:00;100295.38;;;17.77;47.64
11041;BME280;5573;49.592;8.662;2023-04-30T09:47:31;100295.75;;;17.79;48.05
11041;BME280;5573;49.592;8.662;2023-04-30T09:49:59;100291.41;;;17.78;48.81
11041;BME280;5573;49.592;8.662;2023-04-30T09:52:27;100287.59;;;17.95;48.27
11041;BME280;5573;49.592;8.662;2023-04-30T09:54:55;100285.94;;;17.71;47.54
11041;BME280;5573;49.592;8.662;2023-04-30T09:57:23;100281.38;;;17.57;48.99
11041;BME280;5573;49.592;8.662;2023-04-30T09:59:52;100279.13;;;17.44;50.67
11041;BME280;5573;49.592;8.662;2023-04-30T10:02:21;100283.84;;;17.47;49.17
11041;BME280;5573;49.592;8.662;2023-04-30T10:04:55;100271.78;;;18.16;49.76
11041;BME280;5573;49.592;8.662;2023-04-30T10:07:28;100284.03;;;18.45;46.88
11041;BME280;5573;49.592;8.662;2023-04-30T10:09:59;100279.50;;;18.75;46.09
11041;BME280;5573;49.592;8.662;2023-04-30T10:12:35;100270.97;;;18.62;47.28
11041;BME280;5573;49.592;8.662;2023-04-30T10:15:10;100278.78;;;18.71;47.97
11041;BME280;5573;49.592;8.662;2023-04-30T10:17:43;100273.72;;;18.66;46.26
11041;BME280;5573;49.592;8.662;2023-04-30T10:20:14;100267.50;;;19.02;44.94
11041;BME280;5573;49.592;8.662;2023-04-30T10:22:43;100270.50;;;18.91;43.85
11041;BME280;5573;49.592;8.662;2023-04-30T10:25:13;100268.13;;;18.89;44.51
11041;BME280;5573;49.592;8.662;2023-04-30T10:27:41;100271.69;;;18.90;47.07
11041;BME280;5573;49.592;8.662;2023-04-30T10:30:11;100261.91;;;19.58;45.16
11041;BME280;5573;49.592;8.662;2023-04-30T10:32:45;100252.25;;;20.16;44.93
11041;BME280;5573;49.592;8.662;2023-04-30T10:35:18;100249.00;;;20.17;44.37
11041;BME280;5573;49.592;8.662;2023-04-30T10:37:52;100249.28;;;20.23;43.46
11041;BME280;5573;49.592;8.662;2023-04-30T10:40:21;100244.13;;;20.83;41.95
11041;BME280;5573;49.592;8.662;2023-04-30T10:42:49;100249.84;;;20.92;42.17
11041;BME280;5573;49.592;8.662;2023-04-30T10:45:33;100225.78;;;20.20;42.82
11041;BME280;5573;49.592;8.662;2023-04-30T10:48:01;100243.25;;;20.41;42.91
11041;BME280;5573;49.592;8.662;2023-04-30T10:50:29;100242.28;;;20.31;43.15
11041;BME280;5573;49.592;8.662;2023-04-30T10:53:01;100228.53;;;20.53;43.48
11041;BME280;5573;49.592;8.662;2023-04-30T10:55:30;100232.53;;;20.98;40.61
11041;BME280;5573;49.592;8.662;2023-04-30T10:57:58;100233.19;;;21.02;41.13
11041;BME280;5573;49.592;8.662;2023-04-30T11:00:28;100224.81;;;20.43;43.15
11041;BME280;5573;49.592;8.662;2023-04-30T11:03:01;100221.22;;;20.88;40.09
11041;BME280;5573;49.592;8.662;2023-04-30T11:05:35;100213.06;;;20.65;43.03
11041;BME280;5573;49.592;8.662;2023-04-30T11:08:03;100212.25;;;20.02;41.85
11041;BME280;5573;49.592;8.662;2023-04-30T11:10:33;100211.13;;;20.16;42.06
11041;BME280;5573;49.592;8.662;2023-04-30T11:13:03;100204.50;;;20.26;43.77
11041;BME280;5573;49.592;8.662;2023-04-30T11:15:38;100210.97;;;20.69;43.48
11041;BME280;5573;49.592;8.662;2023-04-30T11:18:07;100213.31;;;20.25;42.37
11041;BME280;5573;49.592;8.662;2023-04-30T11:20:38;100214.75;;;20.46;44.84
11041;BME280;5573;49.592;8.662;2023-04-30T11:23:07;100189.47;;;20.66;43.41
11041;BME280;5573;49.592;8.662;2023-04-30T11:25:39;100207.41;;;20.52;43.75
11041;BME280;5573;49.592;8.662;2023-04-30T11:28:10;100212.53;;;20.70;43.17
11041;BME280;5573;49.592;8.662;2023-04-30T11:30:41;100201.91;;;20.48;41.56
11041;BME280;5573;49.592;8.662;2023-04-30T11:33:16;100200.88;;;20.59;41.57
11041;BME280;5573;49.592;8.662;2023-04-30T11:35:44;100197.38;;;20.84;39.41
11041;BME280;5573;49.592;8.662;2023-04-30T11:38:12;100211.03;;;20.95;40.40
11041;BME280;5573;49.592;8.662;2023-04-30T11:40:42;100201.34;;;21.12;42.60
11041;BME280;5573;49.592;8.662;2023-04-30T11:43:20;100213.38;;;20.83;41.60
11041;BME280;5573;49.592;8.662;2023-04-30T11:46:00;100201.91;;;20.48;43.63
11041;BME280;5573;49.592;8.662;2023-04-30T11:48:32;100197.34;;;20.71;42.31
11041;BME280;5573;49.592;8.662;2023-04-30T11:51:13;100189.81;;;20.39;40.99
11041;BME280;5573;49.592;8.662;2023-04-30T11:53:41;100195.22;;;20.75;41.96
11041;BME280;5573;49.592;8.662;2023-04-30T11:56:09;100193.84;;;20.21;41.45
11041;BME280;5573;49.592;8.662;2023-04-30T11:58:37;100185.13;;;20.65;41.33
11041;BME280;5573;49.592;8.662;2023-04-30T12:01:07;100180.00;;;20.76;39.72
11041;BME280;5573;49.592;8.662;2023-04-30T12:03:40;100164.63;;;20.97;41.61
11041;BME280;5573;49.592;8.662;2023-04-30T12:06:09;100185.66;;;21.02;41.11
11041;BME280;5573;49.592;8.662;2023-04-30T12:08:40;100182.53;;;20.58;39.80
11041;BME280;5573;49.592;8.662;2023-04-30T12:11:18;100185.56;;;20.47;40.72
11041;BME280;5573;49.592;8.662;2023-04-30T12:13:51;100179.81;;;20.83;40.22
11041;BME280;5573;49.592;8.662;2023-04-30T12:16:20;100176.78;;;21.45;41.08
11041;BME280;5573;49.592;8.662;2023-04-30T12:18:48;100183.28;;;21.81;40.25
11041;BME280;5573;49.592;8.662;2023-04-30T12:21:20;100178.16;;;22.14;38.53
11041;BME280;5573;49.592;8.662;2023-04-30T12:23:48;100180.72;;;22.56;39.98
11041;BME280;5573;49.592;8.662;2023-04-30T12:26:16;100173.66;;;22.17;38.37
11041;BME280;5573;49.592;8.662;2023-04-30T12:28:46;100162.00;;;21.58;39.01
11041;BME280;5573;49.592;8.662;2023-04-30T12:31:16;100167.16;;;21.59;39.00
11041;BME280;5573;49.592;8.662;2023-04-30T12:33:53;100158.94;;;21.14;39.93
11041;BME280;5573;49.592;8.662;2023-04-30T12:36:28;100170.81;;;20.46;42.84
11041;BME280;5573;49.592;8.662;2023-04-30T12:39:10;100160.53;;;20.60;42.22
11041;BME280;5573;49.592;8.662;2023-04-30T12:41:39;100162.84;;;21.03;41.25
11041;BME280;5573;49.592;8.662;2023-04-30T12:44:19;100149.88;;;21.35;40.29
11041;BME280;5573;49.592;8.662;2023-04-30T12:46:48;100153.06;;;21.50;39.34
11041;BME280;5573;49.592;8.662;2023-04-30T12:49:24;100148.56;;;22.13;38.40
11041;BME280;5573;49.592;8.662;2023-04-30T12:51:57;100146.53;;;21.79;38.62
11041;BME280;5573;49.592;8.662;2023-04-30T12:54:27;100142.78;;;21.95;39.30
11041;BME280;5573;49.592;8.662;2023-04-30T12:56:57;100141.97;;;22.07;39.64
11041;BME280;5573;49.592;8.662;2023-04-30T12:59:25;100139.19;;;21.59;37.82
11041;BME280;5573;49.592;8.662;2023-04-30T13:01:53;100128.59;;;21.89;38.12
11041;BME280;5573;49.592;8.662;2023-04-30T13:04:23;100129.88;;;21.62;39.46
11041;BME280;5573;49.592;8.662;2023-04-30T13:06:51;100125.28;;;21.17;39.30